Williston, ND

7:57 AM CDT on June 23, 2017 (GMT -0500)
Johnson's weather | | Change Station
Active Advisory: Flood Warning

Elev 1916 ft 48.16 °N, 103.64 °W | Updated 10 seconds ago

Clear
Clear
48.3 °F
Feels Like 46 °F
N
6.0
Wind Variable Wind from NW
Gusts 9.0 mph

Today
High -- | Low -- °F
--% Chance of Precip.
Yesterday
High -- | Low -- °F
Precip. -- in
Pressure 30.15 in
Visibility 10.0 miles
Clouds Clear
Windchill 46 °F
Dew Point 40 °F
Humidity 73%
Rainfall 0.00 in
Snow Depth Not available.
5:54 AM 9:58 PM
Waning Crescent, 1% visible
METAR KISN 231252Z AUTO 30013KT 10SM CLR 10/04 A3013 RMK AO2 SLP208 T01000039
Pressure 30.15 in
Visibility 10.0 miles
Clouds Clear
Windchill 46 °F
Dew Point 40 °F
Humidity 73%
Rainfall 0.00 in
Snow Depth Not available.
5:54 AM 9:58 PM
Waning Crescent, 1% visible
METAR KISN 231252Z AUTO 30013KT 10SM CLR 10/04 A3013 RMK AO2 SLP208 T01000039

Get Your Daily Forecast Email!

Thanks for signing up!

Be on the lookout for a verification email in your inbox.

You'll start receiving severe weather alerts in your inbox..

×

10-Day Weather Forecast

Almanac

Astronomy

Jun. 23, 2017 Rise Set
Actual Time
Civil Twilight
Nautical Twilight
Astronomical Twilight
Moon
Length of Visible Light
Length of Day
Tomorrow will be .
, % of the Moon is Illuminated

Today's Extremes

State Highs State Lows

Community

WunderPhotos

Category 6

Welcome to Category 6. This is the collective home for Weather Underground's featured writeups by Dr. Jeff Masters (right), Bob Henson (left), Chris Burt, and other regular contributors.

Nearby

Air Quality

  Air Quality AQ Index Pollutant
Not available.

Snow Depth

Station Depth Elevation

Earthquake Activity

City Distance Mag. Time & Date
Minimum magnitude displayed is 2.5.

Coastal Water Temperatures

Place Temperature

Stations

Nearby Weather Stations

Station Location Temp. Windchill Dew Point Humidity Wind Precip. Elev Updated Type
                   

Watches & Warnings

Flood Warning
Issued: 1:18 PM CDT Jun. 21, 2017 – National Weather Service

The Flood Warning continues for
the Missouri River near Williston.
* Until further notice.
* At 12:45 PM Wednesday the stage was 21.9 feet.
* Flood stage is 22.0 feet.
* Minor flooding is forecast.
* Forecast... rise above flood stage by late this afternoon and
continue to rise to near 22.3 feet by tomorrow morning.
* Impact... at 22.0 feet... low-lying farmland and access roads to oil
well sites near Trenton are flooded. City of Williston does not
flood.



             Fld observed forecasts (7am)
location stg stg day/time Thu Fri Sat sun Mon

Missouri River basin
Williston 22 21.9 Wed 1 PM 22.3 22.2 22.1 22.2 22.3


Lat... Lon 4801 10404 4815 10366 4807 10337 4795 10347
      4807 10366 4775 10404




Ajs